Terminal Aerodrome Forecast
Issued by NWS Goodland, KS

Home | Current Version | Previous Version | Text Only | Print | Product List | Glossary On
Versions: 1 2 3 4 5 6 7 8 9 10 11 12 13 14 15 16 17 18 19 20 21 22 23 24 25 26 27 28 29
000
FTUS43 KGLD 251121
TAFGLD
TAF
KGLD 251121Z 2512/2612 26006KT P6SM OVC200
     FM251800 27010KT P6SM BKN050
     FM260000 21006KT P6SM BKN070
     FM260600 30007KT P6SM BKN070=

USA.gov is the U.S. government's official web portal to all federal, state and local government web resources and services.